Islamorada, FL (33036)

9:07 PM EDT on August 28, 2015 (GMT -0400)
Brown and Crebbin Design Studio | | Change Station
CLOSE
Current Station
Personal Weather Station
Location: Plantation Key, FL
Elevation: 9 ft
Nearby Weather Stations

Elev 9 ft 25.00 °N, 80.54 °W | Updated 6 seconds ago

Clear
Clear
85.3 °F
Feels Like 100 °F
N
0.0
Wind Variable Wind from ESE
Gusts 0.0 mph

Today
High -- | Low -- °F
--% Chance of Precip.
Yesterday
High -- | Low -- °F
Precip. -- in
7:01 AM 7:45 PM
Waxing Gibbous, 99% visible
Pressure 30.02 in
Visibility 10.0 miles
Clouds Clear
Heat Index 100 °F
Dew Point 80 °F
Humidity 84%
Rainfall 0.00 in
Snow Depth Not available.
UV 0 out of 12
Pollen 2.70 out of 12
Air Quality Not available.
Flu Activity Not available.
METAR KHST 290058Z AUTO 06007KT 10SM CLR 28/25 A3001 RMK AO2 LTG DSNT N AND S SLP165 T02820247
Pressure 30.02 in
Visibility 10.0 miles
Clouds Clear
Heat Index 100 °F
Dew Point 80 °F
Humidity 84%
Rainfall 0.00 in
Snow Depth Not available.
UV 0 out of 12
Pollen 2.70 out of 12
Air Quality Not available.
Flu Activity Not available.
METAR KHST 290058Z AUTO 06007KT 10SM CLR 28/25 A3001 RMK AO2 LTG DSNT N AND S SLP165 T02820247
Erika has become very unorganized in the face of strong wind shear in the eastern Caribbean Sea. The storm will pass directly over mountainous Hispaniola today, likely weakening it further. If the storm remains intact, it could reach an area favorable for strengthening before moving onto Florida by early next week. Follow the live blog

Nowcast | as of 8:44 PM EDT on August 28, 2015

Through 1000 PM...isolated showers and thunderstorms will be dotted across the Keys service area...adjacent to the island chain and extending well into the offshore Gulf and Atlantic waters. These few storms will be moving westward close to 10 knots. Marine storms will produce wind gusts in excess of 20 knots and reduce visibility to below 2 nm in moderate to heavy downpours. Only a few island locations will see light to moderate rains through late evening.

×

10-Day Weather Forecast

×

Almanac

Astronomy

Aug. 28, 2015 Rise Set
Actual Time
Civil Twilight
Nautical Twilight
Astronomical Twilight
Moon
Length of Visible Light
Length of Day
Tomorrow will be .
, % of the Moon is Illuminated

Today's Extremes

State Highs State Lows

Community

WunderPhotos

Upload Photos

1,850,557 photos uploaded!

WunderBlogs® & News

Nearby

Air Quality

  Air Quality AQ Index Pollutant
Not available.

Snow Depth

Station Depth Elevation

Earthquake Activity

City Distance Mag. Time & Date
Minimum magnitude displayed is 2.5.

Coastal Water Temperatures

Place Temperature

Stations

Nearby Weather Stations

Station Location Temp. Windchill Dew Point Humidity Wind Precip. Elev Updated Type